createdAt,value
2018-07-13T00:00:39.611Z,16.20
2018-07-13T00:03:07.677Z,16.10
2018-07-13T00:05:35.683Z,16.10
2018-07-13T00:08:03.603Z,16.00
2018-07-13T00:10:31.575Z,15.80
2018-07-13T00:12:59.504Z,15.70
2018-07-13T00:15:27.444Z,15.80
2018-07-13T00:17:55.447Z,15.80
2018-07-13T00:20:23.391Z,15.90
2018-07-13T00:22:51.463Z,15.80
2018-07-13T00:25:19.404Z,15.80
2018-07-13T00:27:47.348Z,15.60
2018-07-13T00:30:15.318Z,15.70
2018-07-13T00:32:43.286Z,15.70
2018-07-13T00:35:11.238Z,15.60
2018-07-13T00:37:39.177Z,15.60
2018-07-13T00:40:07.140Z,15.50
2018-07-13T00:42:35.051Z,15.50
2018-07-13T00:45:03.021Z,15.40
2018-07-13T00:47:30.998Z,15.50
2018-07-13T00:49:58.956Z,15.40
2018-07-13T00:52:26.954Z,15.40
2018-07-13T00:54:54.867Z,15.30
2018-07-13T00:57:22.862Z,15.20
2018-07-13T00:59:50.787Z,15.30
2018-07-13T01:02:18.716Z,15.40
2018-07-13T01:04:46.685Z,15.30
2018-07-13T01:07:14.636Z,15.20
2018-07-13T01:09:42.631Z,15.10
2018-07-13T01:12:10.571Z,15.10
2018-07-13T01:14:38.568Z,15.20
2018-07-13T01:17:06.529Z,15.10
2018-07-13T01:19:34.473Z,15.00
2018-07-13T01:22:02.439Z,14.90
2018-07-13T01:24:30.371Z,14.60
2018-07-13T01:26:58.377Z,14.50
2018-07-13T01:29:26.327Z,14.50
2018-07-13T01:31:54.259Z,14.60
2018-07-13T01:34:22.232Z,14.60
2018-07-13T01:36:50.187Z,14.40
2018-07-13T01:39:18.152Z,14.40
2018-07-13T01:41:46.116Z,14.60
2018-07-13T01:44:14.105Z,14.40
2018-07-13T01:46:42.152Z,14.20
2018-07-13T01:49:10.102Z,14.20
2018-07-13T01:51:38.060Z,14.30
2018-07-13T01:54:06.021Z,14.30
2018-07-13T01:56:35.054Z,14.20
2018-07-13T01:59:04.406Z,14.10
2018-07-13T02:01:33.756Z,13.90
2018-07-13T02:04:01.708Z,13.70
2018-07-13T02:06:29.636Z,13.80
2018-07-13T02:08:57.619Z,14.00
2018-07-13T02:11:25.553Z,14.10
2018-07-13T02:13:53.519Z,14.10
2018-07-13T02:16:21.478Z,14.10
2018-07-13T02:18:49.397Z,14.30
2018-07-13T02:21:17.348Z,14.30
2018-07-13T02:23:45.289Z,14.30
2018-07-13T02:26:13.314Z,14.30
2018-07-13T02:28:41.272Z,14.20
2018-07-13T02:31:09.251Z,14.30
2018-07-13T02:33:37.252Z,14.40
2018-07-13T02:36:05.211Z,14.30
2018-07-13T02:38:33.202Z,14.10
2018-07-13T02:41:01.141Z,14.10
2018-07-13T02:43:29.045Z,14.10
2018-07-13T02:45:57.045Z,14.20
2018-07-13T02:48:24.988Z,14.20
2018-07-13T02:50:52.973Z,14.20
2018-07-13T02:53:20.930Z,14.10
2018-07-13T02:55:48.855Z,14.00
2018-07-13T02:58:16.808Z,14.00
2018-07-13T03:00:44.760Z,14.00
2018-07-13T03:03:12.739Z,14.00
2018-07-13T03:05:40.706Z,13.90
2018-07-13T03:08:08.673Z,13.90
2018-07-13T03:10:36.661Z,13.90
2018-07-13T03:13:04.646Z,13.90
2018-07-13T03:15:32.590Z,13.90
2018-07-13T03:18:00.521Z,13.90
2018-07-13T03:20:28.502Z,13.80
2018-07-13T03:22:56.512Z,13.90
2018-07-13T03:25:24.557Z,13.70
2018-07-13T03:27:52.497Z,13.70
2018-07-13T03:30:20.436Z,13.80
2018-07-13T03:32:48.442Z,13.70
2018-07-13T03:35:16.471Z,13.90
2018-07-13T03:37:44.486Z,13.90
2018-07-13T03:40:12.456Z,13.90
2018-07-13T03:42:40.451Z,13.80
2018-07-13T03:45:08.416Z,14.00
2018-07-13T03:47:36.332Z,14.00
2018-07-13T03:50:04.347Z,13.90
2018-07-13T03:52:32.255Z,13.90
2018-07-13T03:55:00.194Z,13.90
2018-07-13T03:57:28.144Z,14.00
2018-07-13T03:59:56.110Z,14.00
2018-07-13T04:02:24.070Z,14.10
2018-07-13T04:04:52.028Z,14.00
2018-07-13T04:07:19.947Z,14.00
2018-07-13T04:09:47.894Z,13.90
2018-07-13T04:12:15.843Z,13.80
2018-07-13T04:14:43.847Z,13.90
2018-07-13T04:17:11.774Z,13.90
2018-07-13T04:19:39.766Z,13.80
2018-07-13T04:22:07.696Z,13.80
2018-07-13T04:24:35.620Z,13.80
2018-07-13T04:27:03.609Z,13.80
2018-07-13T04:29:32.220Z,13.80
2018-07-13T04:32:00.236Z,13.80
2018-07-13T04:34:28.149Z,13.80
2018-07-13T04:36:56.112Z,13.80
2018-07-13T04:39:24.080Z,14.00
2018-07-13T04:41:52.009Z,14.00
2018-07-13T04:44:19.977Z,13.90
2018-07-13T04:46:47.916Z,13.90
2018-07-13T04:49:15.855Z,14.00
2018-07-13T04:51:43.839Z,14.10
2018-07-13T04:54:11.824Z,14.10
2018-07-13T04:56:39.876Z,14.10
2018-07-13T04:59:07.793Z,14.20
2018-07-13T05:01:35.784Z,14.30
2018-07-13T05:04:03.774Z,14.50
2018-07-13T05:06:31.760Z,14.50
2018-07-13T05:08:59.740Z,14.60
2018-07-13T05:11:27.712Z,14.70
2018-07-13T05:13:55.695Z,14.70
2018-07-13T05:16:23.672Z,14.70
2018-07-13T05:18:51.655Z,14.70
2018-07-13T05:21:19.702Z,14.70
2018-07-13T05:23:47.627Z,14.80
2018-07-13T05:26:15.568Z,15.00
2018-07-13T05:28:43.553Z,15.10
2018-07-13T05:31:12.218Z,15.10
2018-07-13T05:33:40.174Z,15.30
2018-07-13T05:36:08.151Z,15.30
2018-07-13T05:38:36.120Z,15.30
2018-07-13T05:41:04.152Z,15.50
2018-07-13T05:43:32.068Z,15.50
2018-07-13T05:46:00.057Z,15.70
2018-07-13T05:48:29.294Z,15.70
2018-07-13T05:51:09.972Z,15.80
2018-07-13T05:53:38.196Z,15.80
2018-07-13T05:56:06.128Z,16.00
2018-07-13T05:58:34.559Z,16.00
2018-07-13T06:01:02.497Z,16.10
2018-07-13T06:03:30.451Z,16.10
2018-07-13T06:05:58.495Z,16.30
2018-07-13T06:08:27.660Z,16.30
2018-07-13T06:10:55.676Z,16.40
2018-07-13T06:13:23.695Z,16.60
2018-07-13T06:15:51.698Z,16.50
2018-07-13T06:18:19.661Z,16.80
2018-07-13T06:20:47.616Z,16.80
2018-07-13T06:23:15.556Z,16.90
2018-07-13T06:25:43.518Z,16.80
2018-07-13T06:28:11.503Z,16.90
2018-07-13T06:30:39.451Z,17.00
2018-07-13T06:33:07.744Z,17.00
2018-07-13T06:35:35.668Z,17.00
2018-07-13T06:38:03.802Z,17.10
2018-07-13T06:40:31.797Z,17.20
2018-07-13T06:42:59.770Z,17.00
2018-07-13T06:45:27.812Z,17.10
2018-07-13T06:47:55.755Z,17.20
2018-07-13T06:50:23.763Z,17.30
2018-07-13T06:52:51.658Z,17.20
2018-07-13T06:55:19.659Z,17.30
2018-07-13T06:58:42.883Z,17.50
2018-07-13T07:01:10.932Z,17.50
2018-07-13T07:04:37.124Z,17.40
2018-07-13T07:07:18.761Z,17.50
2018-07-13T07:09:51.686Z,17.60
2018-07-13T07:12:52.068Z,17.60
2018-07-13T07:15:20.963Z,17.60
2018-07-13T07:17:49.005Z,17.70
2018-07-13T07:20:16.876Z,17.80
2018-07-13T07:22:45.296Z,18.00
2018-07-13T07:25:13.372Z,18.10
2018-07-13T07:27:41.519Z,18.00
2018-07-13T07:30:09.449Z,17.90
2018-07-13T07:32:37.421Z,18.00
2018-07-13T07:35:05.733Z,18.10
2018-07-13T07:37:33.736Z,18.30
2018-07-13T07:40:02.096Z,18.30
2018-07-13T07:42:30.031Z,18.30
2018-07-13T07:44:58.051Z,18.40
2018-07-13T07:47:25.968Z,18.30
2018-07-13T07:49:54.008Z,18.50
2018-07-13T07:52:21.933Z,18.50
2018-07-13T07:54:49.884Z,18.80
2018-07-13T07:57:17.821Z,18.70
2018-07-13T07:59:45.770Z,18.80
2018-07-13T08:02:13.865Z,18.70
2018-07-13T08:04:41.796Z,18.80
2018-07-13T08:07:10.182Z,18.90
2018-07-13T08:09:37.751Z,19.00
2018-07-13T08:12:05.830Z,19.20
2018-07-13T08:14:33.893Z,19.30
2018-07-13T08:17:01.705Z,19.10
2018-07-13T08:19:29.616Z,19.10
2018-07-13T08:22:20.577Z,18.80
2018-07-13T08:24:49.060Z,18.80
2018-07-13T08:27:22.740Z,19.10
2018-07-13T08:29:52.263Z,18.90
2018-07-13T08:32:20.188Z,19.10
2018-07-13T08:34:48.116Z,19.10
2018-07-13T08:37:16.080Z,19.20
2018-07-13T08:39:44.032Z,19.10
2018-07-13T08:42:12.253Z,19.40
2018-07-13T08:44:39.963Z,19.50
2018-07-13T08:47:07.951Z,19.40
2018-07-13T08:49:35.912Z,19.20
2018-07-13T08:52:03.869Z,19.60
2018-07-13T08:54:31.894Z,19.70
2018-07-13T08:57:00.032Z,19.70
2018-07-13T08:59:28.022Z,19.90
2018-07-13T09:01:56.016Z,19.80
2018-07-13T09:04:24.045Z,19.90
2018-07-13T09:06:51.928Z,20.10
2018-07-13T09:09:20.336Z,19.70
2018-07-13T09:11:48.319Z,19.90
2018-07-13T09:14:16.283Z,20.10
2018-07-13T09:16:44.204Z,20.00
2018-07-13T09:19:12.228Z,20.40
2018-07-13T09:21:40.159Z,20.20
2018-07-13T09:24:08.131Z,20.50
2018-07-13T09:26:36.317Z,20.30
2018-07-13T09:29:04.301Z,20.80
2018-07-13T09:31:32.304Z,20.50
2018-07-13T09:34:00.266Z,20.70
2018-07-13T09:36:28.294Z,20.80
2018-07-13T09:38:56.341Z,20.70
2018-07-13T09:41:24.276Z,21.20
2018-07-13T09:43:52.285Z,21.30
2018-07-13T09:46:20.243Z,20.90
2018-07-13T09:48:48.204Z,20.90
2018-07-13T09:51:16.212Z,20.90
2018-07-13T09:53:44.220Z,20.90
2018-07-13T09:56:12.183Z,21.00
2018-07-13T09:58:40.123Z,21.30
2018-07-13T10:01:21.491Z,21.40
2018-07-13T10:03:49.444Z,21.30
2018-07-13T10:06:17.407Z,21.50
2018-07-13T10:08:45.492Z,21.50
2018-07-13T10:11:13.545Z,21.60
2018-07-13T10:13:41.577Z,21.80
2018-07-13T10:16:09.585Z,21.70
2018-07-13T10:18:37.549Z,21.70
2018-07-13T10:21:07.050Z,22.00
2018-07-13T10:23:35.036Z,21.80
2018-07-13T10:26:21.040Z,22.30
2018-07-13T10:28:49.036Z,22.30
2018-07-13T10:31:17.155Z,22.40
2018-07-13T10:33:45.224Z,22.40
2018-07-13T10:36:15.557Z,22.40
2018-07-13T10:38:43.710Z,22.70
2018-07-13T10:41:11.640Z,22.80
2018-07-13T10:43:39.630Z,22.80
2018-07-13T10:46:07.654Z,22.80
2018-07-13T10:48:35.647Z,23.10
2018-07-13T10:51:03.639Z,22.80
2018-07-13T10:53:32.005Z,23.10
2018-07-13T10:56:00.037Z,23.30
2018-07-13T10:58:28.031Z,23.50
2018-07-13T11:00:56.041Z,23.20
2018-07-13T11:03:23.996Z,23.30
2018-07-13T11:05:51.923Z,23.20
2018-07-13T11:08:19.852Z,23.40
2018-07-13T11:10:47.822Z,23.40
2018-07-13T11:13:15.745Z,23.50
2018-07-13T11:15:43.736Z,23.00
2018-07-13T11:18:11.696Z,23.90
2018-07-13T11:20:39.760Z,24.20
2018-07-13T11:23:07.744Z,24.30
2018-07-13T11:25:35.683Z,23.40
2018-07-13T11:28:03.774Z,23.80
2018-07-13T11:30:31.768Z,23.50
2018-07-13T11:32:59.729Z,24.00
2018-07-13T11:35:27.712Z,23.50
2018-07-13T11:37:55.678Z,24.70
2018-07-13T11:40:23.669Z,24.50
2018-07-13T11:42:51.712Z,24.60
2018-07-13T11:45:19.629Z,25.00
2018-07-13T11:47:47.559Z,25.10
2018-07-13T11:50:15.485Z,24.70
2018-07-13T11:52:43.535Z,24.50
2018-07-13T11:55:11.435Z,24.80
2018-07-13T11:57:39.355Z,24.60
2018-07-13T12:00:07.314Z,24.70
2018-07-13T12:02:35.224Z,25.00
2018-07-13T12:05:03.208Z,24.60
2018-07-13T12:07:31.236Z,25.10
2018-07-13T12:09:59.129Z,25.50
2018-07-13T12:12:27.154Z,25.10
2018-07-13T12:14:55.129Z,25.60
2018-07-13T12:17:23.186Z,25.10
2018-07-13T12:19:51.073Z,25.40
2018-07-13T12:22:19.001Z,25.30
2018-07-13T12:24:47.243Z,26.10
2018-07-13T12:27:15.227Z,25.70
2018-07-13T12:29:43.190Z,26.10
2018-07-13T12:32:11.253Z,26.50
2018-07-13T12:34:39.264Z,26.00
2018-07-13T12:37:08.169Z,26.70
2018-07-13T12:39:36.307Z,26.10
2018-07-13T12:42:04.379Z,26.60
2018-07-13T12:44:32.307Z,27.00
2018-07-13T12:47:00.295Z,26.20
2018-07-13T12:49:28.228Z,26.60
2018-07-13T12:51:56.298Z,26.80
2018-07-13T12:54:24.459Z,26.90
2018-07-13T12:56:52.242Z,27.00
2018-07-13T12:59:20.254Z,27.20
2018-07-13T13:01:48.153Z,27.10
2018-07-13T13:04:16.253Z,27.20
2018-07-13T13:06:44.276Z,27.60
2018-07-13T13:09:12.201Z,27.60
2018-07-13T13:11:40.240Z,27.00
2018-07-13T13:14:08.172Z,26.80
2018-07-13T13:16:36.144Z,26.60
2018-07-13T13:19:04.103Z,27.50
2018-07-13T13:21:32.174Z,27.10
2018-07-13T13:24:00.103Z,27.70
2018-07-13T13:26:28.045Z,27.20
2018-07-13T13:28:56.004Z,28.20
2018-07-13T13:31:23.969Z,27.60
2018-07-13T13:33:51.935Z,28.60
2018-07-13T13:36:19.928Z,28.30
2018-07-13T13:38:47.856Z,28.60
2018-07-13T13:41:15.853Z,28.30
2018-07-13T13:43:43.809Z,28.40
2018-07-13T13:46:11.748Z,29.60
2018-07-13T13:48:39.712Z,29.10
2018-07-13T13:51:07.637Z,28.70
2018-07-13T13:53:35.702Z,29.30
2018-07-13T13:56:03.607Z,28.90
2018-07-13T13:58:31.614Z,29.30
2018-07-13T14:00:59.604Z,29.40
2018-07-13T14:03:27.580Z,28.90
2018-07-13T14:05:55.547Z,29.80
2018-07-13T14:08:23.553Z,30.00
2018-07-13T14:10:51.913Z,29.60
2018-07-13T14:13:19.882Z,29.20
2018-07-13T14:15:47.828Z,30.10
2018-07-13T14:18:15.805Z,29.90
2018-07-13T14:20:43.735Z,29.60
2018-07-13T14:23:11.711Z,30.20
2018-07-13T14:25:39.727Z,30.90
2018-07-13T14:28:10.555Z,30.30
2018-07-13T14:30:38.514Z,30.90
2018-07-13T14:33:06.567Z,30.40
2018-07-13T14:35:34.534Z,30.50
2018-07-13T14:38:02.505Z,29.80
2018-07-13T14:40:30.458Z,30.40
2018-07-13T14:42:58.463Z,30.60
2018-07-13T14:45:26.460Z,31.10
2018-07-13T14:47:54.435Z,31.80
2018-07-13T14:50:22.343Z,35.10
2018-07-13T14:52:50.416Z,36.00
2018-07-13T14:55:18.405Z,36.80
2018-07-13T14:57:46.379Z,38.10
2018-07-13T15:00:14.368Z,35.90
2018-07-13T15:02:42.293Z,36.70
2018-07-13T15:05:10.458Z,37.30
2018-07-13T15:07:38.367Z,37.10
2018-07-13T15:10:06.400Z,37.30
2018-07-13T15:12:34.336Z,36.20
2018-07-13T15:15:02.318Z,37.50
2018-07-13T15:17:30.331Z,38.30
2018-07-13T15:19:58.316Z,38.00
2018-07-13T15:22:26.224Z,36.30
2018-07-13T15:24:54.210Z,34.20
2018-07-13T15:27:22.419Z,32.70
2018-07-13T15:29:50.375Z,32.20
2018-07-13T15:32:18.458Z,32.20
2018-07-13T15:34:46.345Z,31.50
2018-07-13T15:37:14.348Z,31.50
2018-07-13T15:39:42.286Z,31.10
2018-07-13T15:42:10.239Z,31.30
2018-07-13T15:44:38.196Z,31.20
2018-07-13T15:47:06.132Z,31.30
2018-07-13T15:49:34.105Z,31.40
2018-07-13T15:52:02.063Z,30.90
2018-07-13T15:54:29.988Z,30.70
2018-07-13T15:56:58.049Z,30.80
2018-07-13T15:59:25.981Z,30.60
2018-07-13T16:01:53.971Z,31.10
2018-07-13T16:04:21.937Z,31.20
2018-07-13T16:06:49.889Z,31.10
2018-07-13T16:09:17.882Z,30.70
2018-07-13T16:11:45.871Z,30.60
2018-07-13T16:14:13.906Z,31.10
2018-07-13T16:16:41.848Z,30.80
2018-07-13T16:19:09.882Z,31.10
2018-07-13T16:21:37.819Z,30.90
2018-07-13T16:24:05.822Z,30.60
2018-07-13T16:26:33.788Z,30.70
2018-07-13T16:29:01.728Z,31.40
2018-07-13T16:31:29.715Z,30.60
2018-07-13T16:33:57.671Z,30.50
2018-07-13T16:36:25.558Z,30.90
2018-07-13T16:38:53.521Z,30.80
2018-07-13T16:41:21.460Z,30.60
2018-07-13T16:43:49.787Z,30.80
2018-07-13T16:46:17.722Z,30.80
2018-07-13T16:48:45.664Z,30.70
2018-07-13T16:51:13.698Z,30.60
2018-07-13T16:53:41.725Z,30.50
2018-07-13T16:56:09.788Z,30.50
2018-07-13T16:58:37.736Z,30.70
2018-07-13T17:01:05.706Z,30.80
2018-07-13T17:03:33.755Z,30.20
2018-07-13T17:06:01.603Z,30.40
2018-07-13T17:08:29.575Z,30.40
2018-07-13T17:10:57.518Z,30.40
2018-07-13T17:13:25.465Z,30.30
2018-07-13T17:15:53.433Z,29.80
2018-07-13T17:18:21.350Z,30.50
2018-07-13T17:20:49.592Z,30.10
2018-07-13T17:23:17.554Z,30.40
2018-07-13T17:25:45.522Z,30.30
2018-07-13T17:28:13.488Z,29.80
2018-07-13T17:30:41.444Z,29.40
2018-07-13T17:33:09.411Z,29.70
2018-07-13T17:35:37.320Z,30.10
2018-07-13T17:38:05.268Z,29.90
2018-07-13T17:40:33.269Z,29.70
2018-07-13T17:43:01.398Z,29.50
2018-07-13T17:45:29.171Z,29.20
2018-07-13T17:47:57.216Z,29.30
2018-07-13T17:50:25.143Z,29.20
2018-07-13T17:52:53.096Z,29.10
2018-07-13T17:55:22.495Z,29.10
2018-07-13T17:57:50.521Z,28.80
2018-07-13T18:00:18.411Z,28.40
2018-07-13T18:02:46.363Z,28.70
2018-07-13T18:05:14.311Z,28.80
2018-07-13T18:07:42.245Z,28.30
2018-07-13T18:10:10.261Z,28.30
2018-07-13T18:12:38.254Z,29.10
2018-07-13T18:15:06.180Z,29.10
2018-07-13T18:17:34.121Z,29.20
2018-07-13T18:20:02.154Z,28.60
2018-07-13T18:22:30.106Z,29.30
2018-07-13T18:24:58.118Z,29.00
2018-07-13T18:27:26.025Z,28.70
2018-07-13T18:29:53.986Z,28.30
2018-07-13T18:32:21.949Z,28.40
2018-07-13T18:34:49.935Z,28.40
2018-07-13T18:37:17.875Z,27.20
2018-07-13T18:39:45.883Z,28.50
2018-07-13T18:42:13.804Z,28.30
2018-07-13T18:44:41.767Z,27.90
2018-07-13T18:47:10.041Z,26.90
2018-07-13T18:49:38.254Z,27.20
2018-07-13T18:52:06.374Z,26.80
2018-07-13T18:54:34.396Z,26.60
2018-07-13T18:57:02.418Z,26.60
2018-07-13T18:59:30.374Z,26.20
2018-07-13T19:01:58.318Z,26.10
2018-07-13T19:04:26.279Z,26.10
2018-07-13T19:06:54.284Z,26.00
2018-07-13T19:09:22.259Z,25.50
2018-07-13T19:11:50.199Z,25.00
2018-07-13T19:14:18.204Z,24.00
2018-07-13T19:16:46.221Z,24.00
2018-07-13T19:19:14.157Z,24.50
2018-07-13T19:21:42.156Z,24.40
2018-07-13T19:24:10.188Z,24.60
2018-07-13T19:26:38.126Z,23.80
2018-07-13T19:29:06.107Z,23.90
2018-07-13T19:31:34.142Z,23.60
2018-07-13T19:34:02.152Z,23.60
2018-07-13T19:36:30.149Z,23.80
2018-07-13T19:38:58.189Z,23.00
2018-07-13T19:41:26.109Z,23.30
2018-07-13T19:43:54.077Z,22.90
2018-07-13T19:46:22.003Z,22.70
2018-07-13T19:48:49.946Z,22.60
2018-07-13T19:51:17.882Z,22.60
2018-07-13T19:53:45.866Z,22.50
2018-07-13T19:56:13.787Z,22.00
2018-07-13T19:58:41.792Z,22.40
2018-07-13T20:01:09.718Z,22.30
2018-07-13T20:03:37.686Z,22.10
2018-07-13T20:06:05.643Z,21.90
2018-07-13T20:08:33.595Z,21.70
2018-07-13T20:11:01.554Z,21.30
2018-07-13T20:13:29.500Z,20.90
2018-07-13T20:15:57.438Z,21.60
2018-07-13T20:18:25.400Z,21.90
2018-07-13T20:20:53.317Z,21.60
2018-07-13T20:23:21.302Z,21.40
2018-07-13T20:25:49.279Z,21.30
2018-07-13T20:28:17.356Z,21.30
2018-07-13T20:30:45.293Z,21.10
2018-07-13T20:33:13.326Z,21.20
2018-07-13T20:35:41.252Z,21.10
2018-07-13T20:38:09.226Z,20.90
2018-07-13T20:40:37.203Z,21.20
2018-07-13T20:43:05.376Z,20.90
2018-07-13T20:45:33.325Z,20.90
2018-07-13T20:48:01.255Z,20.90
2018-07-13T20:50:29.206Z,20.60
2018-07-13T20:53:00.196Z,20.60
2018-07-13T20:55:28.127Z,20.70
2018-07-13T20:57:56.074Z,20.40
2018-07-13T21:00:23.991Z,20.50
2018-07-13T21:02:52.035Z,20.60
2018-07-13T21:05:19.896Z,20.70
2018-07-13T21:07:47.841Z,20.60
2018-07-13T21:10:15.860Z,20.40
2018-07-13T21:12:43.747Z,20.40
2018-07-13T21:15:11.681Z,20.30
2018-07-13T21:17:39.601Z,20.10
2018-07-13T21:20:07.663Z,20.00
2018-07-13T21:22:35.536Z,19.90
2018-07-13T21:25:03.471Z,19.80
2018-07-13T21:27:31.432Z,19.70
2018-07-13T21:29:59.427Z,19.50
2018-07-13T21:32:27.432Z,19.30
2018-07-13T21:34:55.384Z,19.00
2018-07-13T21:37:23.325Z,19.00
2018-07-13T21:39:51.330Z,19.20
2018-07-13T21:42:19.283Z,18.90
2018-07-13T21:44:47.379Z,19.10
2018-07-13T21:47:15.372Z,18.90
2018-07-13T21:49:43.289Z,18.70
2018-07-13T21:52:11.360Z,18.60
2018-07-13T21:54:39.178Z,18.60
2018-07-13T21:57:07.152Z,18.50
2018-07-13T21:59:35.093Z,18.70
2018-07-13T22:02:03.060Z,18.40
2018-07-13T22:04:31.010Z,18.30
2018-07-13T22:06:58.937Z,18.20
2018-07-13T22:09:26.900Z,18.30
2018-07-13T22:11:54.839Z,18.20
2018-07-13T22:14:22.819Z,18.30
2018-07-13T22:16:50.841Z,18.40
2018-07-13T22:19:18.758Z,18.60
2018-07-13T22:21:46.763Z,18.60
2018-07-13T22:24:14.710Z,18.50
2018-07-13T22:26:42.682Z,18.50
2018-07-13T22:29:10.615Z,18.60
2018-07-13T22:31:38.549Z,18.50
2018-07-13T22:34:06.495Z,18.70
2018-07-13T22:36:34.441Z,18.70
2018-07-13T22:39:03.177Z,18.60
2018-07-13T22:41:31.094Z,18.60
2018-07-13T22:43:58.999Z,18.50
2018-07-13T22:46:26.957Z,18.50
2018-07-13T22:48:54.910Z,18.50
2018-07-13T22:51:22.916Z,18.40
2018-07-13T22:53:50.855Z,18.50
2018-07-13T22:56:18.795Z,18.50
2018-07-13T22:58:46.795Z,18.60
2018-07-13T23:01:14.803Z,18.50
2018-07-13T23:03:42.767Z,18.40
2018-07-13T23:06:10.744Z,18.40
2018-07-13T23:08:38.668Z,18.40
2018-07-13T23:11:06.767Z,18.50
2018-07-13T23:13:34.734Z,18.30
2018-07-13T23:16:02.686Z,18.30
2018-07-13T23:18:30.603Z,18.30
2018-07-13T23:20:58.589Z,18.30
2018-07-13T23:23:26.568Z,18.30
2018-07-13T23:25:54.487Z,18.10
2018-07-13T23:28:22.464Z,18.00
2018-07-13T23:30:50.396Z,18.00
2018-07-13T23:33:18.324Z,17.90
2018-07-13T23:35:46.353Z,17.80
2018-07-13T23:38:14.371Z,17.90
2018-07-13T23:40:42.394Z,17.80
2018-07-13T23:43:10.428Z,17.90
2018-07-13T23:45:38.366Z,18.00
2018-07-13T23:48:06.360Z,18.10
2018-07-13T23:50:34.289Z,18.30
2018-07-13T23:53:02.257Z,18.20
2018-07-13T23:55:30.194Z,18.10
2018-07-13T23:57:58.182Z,18.10
